sensor_id;sensor_type;location;lat;lon;timestamp;temperature;humidity
3005;DHT22;1512;51.486;6.610;2023-02-21T00:00:11;8.80;1.00
3005;DHT22;1512;51.486;6.610;2023-02-21T00:04:39;8.70;1.00
3005;DHT22;1512;51.486;6.610;2023-02-21T00:09:13;8.70;1.00
3005;DHT22;1512;51.486;6.610;2023-02-21T00:13:40;8.80;1.00
3005;DHT22;1512;51.486;6.610;2023-02-21T00:18:26;8.80;1.00
3005;DHT22;1512;51.486;6.610;2023-02-21T00:22:52;8.60;1.00
3005;DHT22;1512;51.486;6.610;2023-02-21T00:27:20;8.70;1.00
3005;DHT22;1512;51.486;6.610;2023-02-21T00:32:06;8.70;1.00
3005;DHT22;1512;51.486;6.610;2023-02-21T00:36:33;8.70;1.00
3005;DHT22;1512;51.486;6.610;2023-02-21T00:41:20;8.60;1.00
3005;DHT22;1512;51.486;6.610;2023-02-21T00:45:47;8.60;1.00
3005;DHT22;1512;51.486;6.610;2023-02-21T00:50:14;8.60;1.00
3005;DHT22;1512;51.486;6.610;2023-02-21T00:54:41;8.80;1.00
3005;DHT22;1512;51.486;6.610;2023-02-21T00:59:08;8.60;1.00
3005;DHT22;1512;51.486;6.610;2023-02-21T01:03:34;8.60;1.00
3005;DHT22;1512;51.486;6.610;2023-02-21T01:08:00;8.70;1.00
3005;DHT22;1512;51.486;6.610;2023-02-21T01:12:27;8.60;1.00
3005;DHT22;1512;51.486;6.610;2023-02-21T01:16:56;8.60;1.00
3005;DHT22;1512;51.486;6.610;2023-02-21T01:21:23;8.60;1.00
3005;DHT22;1512;51.486;6.610;2023-02-21T01:25:49;8.60;1.00
3005;DHT22;1512;51.486;6.610;2023-02-21T01:30:15;8.70;1.00
3005;DHT22;1512;51.486;6.610;2023-02-21T01:34:42;8.70;1.00
3005;DHT22;1512;51.486;6.610;2023-02-21T01:39:09;8.60;1.00
3005;DHT22;1512;51.486;6.610;2023-02-21T01:43:36;8.60;1.00
3005;DHT22;1512;51.486;6.610;2023-02-21T01:48:03;8.50;1.00
3005;DHT22;1512;51.486;6.610;2023-02-21T01:52:29;8.60;1.00
3005;DHT22;1512;51.486;6.610;2023-02-21T01:56:58;8.50;1.00
3005;DHT22;1512;51.486;6.610;2023-02-21T02:01:45;8.50;1.00
3005;DHT22;1512;51.486;6.610;2023-02-21T02:06:14;8.50;1.00
3005;DHT22;1512;51.486;6.610;2023-02-21T02:10:43;8.50;1.00
3005;DHT22;1512;51.486;6.610;2023-02-21T02:15:23;8.50;1.00
3005;DHT22;1512;51.486;6.610;2023-02-21T02:38:02;8.50;1.00
3005;DHT22;1512;51.486;6.610;2023-02-21T02:42:19;8.50;1.00
3005;DHT22;1512;51.486;6.610;2023-02-21T02:46:27;8.40;1.00
3005;DHT22;1512;51.486;6.610;2023-02-21T02:50:39;8.40;1.00
3005;DHT22;1512;51.486;6.610;2023-02-21T02:55:00;8.50;1.00
3005;DHT22;1512;51.486;6.610;2023-02-21T02:59:18;8.50;1.00
3005;DHT22;1512;51.486;6.610;2023-02-21T03:03:38;8.50;1.00
3005;DHT22;1512;51.486;6.610;2023-02-21T03:07:58;8.50;1.00
3005;DHT22;1512;51.486;6.610;2023-02-21T03:16:44;8.50;1.00
3005;DHT22;1512;51.486;6.610;2023-02-21T03:20:57;8.40;1.00
3005;DHT22;1512;51.486;6.610;2023-02-21T03:25:07;8.40;1.00
3005;DHT22;1512;51.486;6.610;2023-02-21T03:29:16;8.40;1.00
3005;DHT22;1512;51.486;6.610;2023-02-21T03:33:26;8.30;1.00
3005;DHT22;1512;51.486;6.610;2023-02-21T03:37:44;8.30;1.00
3005;DHT22;1512;51.486;6.610;2023-02-21T03:41:53;8.30;1.00
3005;DHT22;1512;51.486;6.610;2023-02-21T03:46:02;8.30;1.00
3005;DHT22;1512;51.486;6.610;2023-02-21T03:50:11;8.40;1.00
3005;DHT22;1512;51.486;6.610;2023-02-21T03:54:20;8.40;1.00
3005;DHT22;1512;51.486;6.610;2023-02-21T03:58:29;8.30;1.00
3005;DHT22;1512;51.486;6.610;2023-02-21T04:02:37;8.30;1.00
3005;DHT22;1512;51.486;6.610;2023-02-21T04:06:46;8.30;1.00
3005;DHT22;1512;51.486;6.610;2023-02-21T04:10:54;8.30;1.00
3005;DHT22;1512;51.486;6.610;2023-02-21T04:15:03;8.30;1.00
3005;DHT22;1512;51.486;6.610;2023-02-21T04:19:12;8.30;1.00
3005;DHT22;1512;51.486;6.610;2023-02-21T04:23:21;8.30;1.00
3005;DHT22;1512;51.486;6.610;2023-02-21T04:27:30;8.30;1.00
3005;DHT22;1512;51.486;6.610;2023-02-21T04:31:57;8.30;1.00
3005;DHT22;1512;51.486;6.610;2023-02-21T04:36:26;8.30;1.00
3005;DHT22;1512;51.486;6.610;2023-02-21T04:40:34;8.30;1.00
3005;DHT22;1512;51.486;6.610;2023-02-21T04:44:43;8.30;1.00
3005;DHT22;1512;51.486;6.610;2023-02-21T04:48:53;8.30;1.00
3005;DHT22;1512;51.486;6.610;2023-02-21T04:53:02;8.30;1.00
3005;DHT22;1512;51.486;6.610;2023-02-21T04:57:10;8.30;1.00
3005;DHT22;1512;51.486;6.610;2023-02-21T05:01:19;8.30;1.00
3005;DHT22;1512;51.486;6.610;2023-02-21T05:05:28;8.30;1.00
3005;DHT22;1512;51.486;6.610;2023-02-21T05:09:37;8.20;8.60
3005;DHT22;1512;51.486;6.610;2023-02-21T05:13:46;8.30;7.50
3005;DHT22;1512;51.486;6.610;2023-02-21T05:17:55;8.30;21.50
3005;DHT22;1512;51.486;6.610;2023-02-21T05:22:03;8.30;1.00
3005;DHT22;1512;51.486;6.610;2023-02-21T05:26:13;8.30;1.00
3005;DHT22;1512;51.486;6.610;2023-02-21T05:30:23;8.20;9.80
3005;DHT22;1512;51.486;6.610;2023-02-21T05:34:31;8.20;28.10
3005;DHT22;1512;51.486;6.610;2023-02-21T05:38:59;8.20;29.60
3005;DHT22;1512;51.486;6.610;2023-02-21T05:43:27;8.20;41.00
3005;DHT22;1512;51.486;6.610;2023-02-21T05:47:37;8.20;57.00
3005;DHT22;1512;51.486;6.610;2023-02-21T05:51:46;8.20;61.00
3005;DHT22;1512;51.486;6.610;2023-02-21T05:55:55;8.20;77.60
3005;DHT22;1512;51.486;6.610;2023-02-21T06:00:24;8.20;81.30
3005;DHT22;1512;51.486;6.610;2023-02-21T06:04:34;8.20;93.30
3005;DHT22;1512;51.486;6.610;2023-02-21T06:08:48;8.10;92.20
3005;DHT22;1512;51.486;6.610;2023-02-21T06:12:56;8.10;96.00
3005;DHT22;1512;51.486;6.610;2023-02-21T06:17:05;8.20;95.90
3005;DHT22;1512;51.486;6.610;2023-02-21T06:21:13;8.10;97.70
3005;DHT22;1512;51.486;6.610;2023-02-21T06:25:23;8.10;99.90
3005;DHT22;1512;51.486;6.610;2023-02-21T06:29:31;8.10;99.90
3005;DHT22;1512;51.486;6.610;2023-02-21T06:33:40;8.10;99.90
3005;DHT22;1512;51.486;6.610;2023-02-21T06:37:49;8.10;99.90
3005;DHT22;1512;51.486;6.610;2023-02-21T06:41:58;8.10;99.90
3005;DHT22;1512;51.486;6.610;2023-02-21T06:46:06;8.10;99.90
3005;DHT22;1512;51.486;6.610;2023-02-21T06:50:15;8.10;99.90
3005;DHT22;1512;51.486;6.610;2023-02-21T06:54:24;8.10;99.90
3005;DHT22;1512;51.486;6.610;2023-02-21T06:58:33;8.10;99.90
3005;DHT22;1512;51.486;6.610;2023-02-21T07:02:42;8.00;99.90
3005;DHT22;1512;51.486;6.610;2023-02-21T07:06:51;8.00;99.90
3005;DHT22;1512;51.486;6.610;2023-02-21T07:11:00;8.00;99.90
3005;DHT22;1512;51.486;6.610;2023-02-21T07:15:08;8.00;99.90
3005;DHT22;1512;51.486;6.610;2023-02-21T07:19:17;8.00;99.90
3005;DHT22;1512;51.486;6.610;2023-02-21T07:23:26;8.00;99.90
3005;DHT22;1512;51.486;6.610;2023-02-21T07:27:54;8.00;99.90
3005;DHT22;1512;51.486;6.610;2023-02-21T07:32:03;8.10;99.90
3005;DHT22;1512;51.486;6.610;2023-02-21T07:36:12;8.00;99.90
3005;DHT22;1512;51.486;6.610;2023-02-21T07:40:40;8.00;99.90
3005;DHT22;1512;51.486;6.610;2023-02-21T07:44:53;8.00;99.90
3005;DHT22;1512;51.486;6.610;2023-02-21T07:48:59;8.00;99.90
3005;DHT22;1512;51.486;6.610;2023-02-21T07:53:08;7.90;99.90
3005;DHT22;1512;51.486;6.610;2023-02-21T07:57:18;7.90;99.90
3005;DHT22;1512;51.486;6.610;2023-02-21T08:01:27;7.90;99.90
3005;DHT22;1512;51.486;6.610;2023-02-21T08:05:35;7.90;99.90
3005;DHT22;1512;51.486;6.610;2023-02-21T08:10:03;8.00;99.90
3005;DHT22;1512;51.486;6.610;2023-02-21T08:14:15;7.90;99.90
3005;DHT22;1512;51.486;6.610;2023-02-21T08:18:25;8.00;99.90
3005;DHT22;1512;51.486;6.610;2023-02-21T08:22:38;8.00;99.90
3005;DHT22;1512;51.486;6.610;2023-02-21T08:26:47;8.00;99.90
3005;DHT22;1512;51.486;6.610;2023-02-21T08:30:55;7.90;99.90
3005;DHT22;1512;51.486;6.610;2023-02-21T08:35:23;8.00;99.90
3005;DHT22;1512;51.486;6.610;2023-02-21T08:39:32;7.90;99.90
3005;DHT22;1512;51.486;6.610;2023-02-21T08:43:40;8.00;99.90
3005;DHT22;1512;51.486;6.610;2023-02-21T08:48:08;8.00;99.90
3005;DHT22;1512;51.486;6.610;2023-02-21T08:52:18;8.10;99.90
3005;DHT22;1512;51.486;6.610;2023-02-21T08:56:28;8.00;99.90
3005;DHT22;1512;51.486;6.610;2023-02-21T09:00:37;8.10;99.90
3005;DHT22;1512;51.486;6.610;2023-02-21T09:04:46;8.00;99.90
3005;DHT22;1512;51.486;6.610;2023-02-21T09:08:55;8.00;99.90
3005;DHT22;1512;51.486;6.610;2023-02-21T09:13:04;8.00;99.90
3005;DHT22;1512;51.486;6.610;2023-02-21T09:17:13;8.10;99.90
3005;DHT22;1512;51.486;6.610;2023-02-21T09:21:22;8.10;99.90
3005;DHT22;1512;51.486;6.610;2023-02-21T09:25:30;8.10;99.90
3005;DHT22;1512;51.486;6.610;2023-02-21T09:29:39;8.10;99.90
3005;DHT22;1512;51.486;6.610;2023-02-21T09:33:49;8.10;99.90
3005;DHT22;1512;51.486;6.610;2023-02-21T09:37:59;8.10;99.90
3005;DHT22;1512;51.486;6.610;2023-02-21T09:42:11;8.10;99.90
3005;DHT22;1512;51.486;6.610;2023-02-21T09:46:40;8.20;99.90
3005;DHT22;1512;51.486;6.610;2023-02-21T09:50:52;8.20;99.90
3005;DHT22;1512;51.486;6.610;2023-02-21T09:55:25;8.30;99.90
3005;DHT22;1512;51.486;6.610;2023-02-21T09:59:31;8.20;99.90
3005;DHT22;1512;51.486;6.610;2023-02-21T10:03:50;8.30;99.90
3005;DHT22;1512;51.486;6.610;2023-02-21T10:08:08;8.30;99.90
3005;DHT22;1512;51.486;6.610;2023-02-21T10:12:27;8.20;99.90
3005;DHT22;1512;51.486;6.610;2023-02-21T10:16:55;8.30;99.90
3005;DHT22;1512;51.486;6.610;2023-02-21T10:21:09;8.30;99.90
3005;DHT22;1512;51.486;6.610;2023-02-21T10:25:31;8.40;99.90
3005;DHT22;1512;51.486;6.610;2023-02-21T10:33:52;8.50;99.90
3005;DHT22;1512;51.486;6.610;2023-02-21T10:38:02;8.60;99.90
3005;DHT22;1512;51.486;6.610;2023-02-21T10:42:17;8.70;99.90
3005;DHT22;1512;51.486;6.610;2023-02-21T10:46:32;8.80;99.90
3005;DHT22;1512;51.486;6.610;2023-02-21T10:55:09;8.90;99.90
3005;DHT22;1512;51.486;6.610;2023-02-21T11:03:30;8.90;99.90
3005;DHT22;1512;51.486;6.610;2023-02-21T11:07:40;8.90;99.90
3005;DHT22;1512;51.486;6.610;2023-02-21T11:16:19;9.00;78.50
3005;DHT22;1512;51.486;6.610;2023-02-21T11:20:31;9.00;53.10
3005;DHT22;1512;51.486;6.610;2023-02-21T11:25:02;9.10;24.60
3005;DHT22;1512;51.486;6.610;2023-02-21T11:29:15;9.10;1.00
3005;DHT22;1512;51.486;6.610;2023-02-21T11:33:22;9.10;1.00
3005;DHT22;1512;51.486;6.610;2023-02-21T11:37:30;9.20;1.00
3005;DHT22;1512;51.486;6.610;2023-02-21T11:41:59;9.30;1.00
3005;DHT22;1512;51.486;6.610;2023-02-21T11:46:35;9.50;1.00
3005;DHT22;1512;51.486;6.610;2023-02-21T11:50:45;9.50;1.00
3005;DHT22;1512;51.486;6.610;2023-02-21T11:54:56;9.50;1.00
3005;DHT22;1512;51.486;6.610;2023-02-21T11:59:20;9.40;1.00
3005;DHT22;1512;51.486;6.610;2023-02-21T12:30:23;9.50;99.90
3005;DHT22;1512;51.486;6.610;2023-02-21T12:47:37;9.50;1.00
3005;DHT22;1512;51.486;6.610;2023-02-21T12:52:01;9.40;1.00
3005;DHT22;1512;51.486;6.610;2023-02-21T13:05:10;9.40;99.90
3005;DHT22;1512;51.486;6.610;2023-02-21T13:09:14;9.40;1.00
3005;DHT22;1512;51.486;6.610;2023-02-21T13:13:26;9.50;1.00
3005;DHT22;1512;51.486;6.610;2023-02-21T13:17:35;9.50;1.00
3005;DHT22;1512;51.486;6.610;2023-02-21T13:30:56;9.60;99.90
3005;DHT22;1512;51.486;6.610;2023-02-21T13:35:06;9.60;99.90
3005;DHT22;1512;51.486;6.610;2023-02-21T13:39:26;9.60;1.00
3005;DHT22;1512;51.486;6.610;2023-02-21T13:43:32;9.60;1.00
3005;DHT22;1512;51.486;6.610;2023-02-21T13:56:40;9.50;1.00
3005;DHT22;1512;51.486;6.610;2023-02-21T14:00:50;9.50;1.00
3005;DHT22;1512;51.486;6.610;2023-02-21T14:05:02;9.40;1.00
3005;DHT22;1512;51.486;6.610;2023-02-21T14:09:14;9.50;1.00
3005;DHT22;1512;51.486;6.610;2023-02-21T14:13:47;9.40;96.20
3005;DHT22;1512;51.486;6.610;2023-02-21T14:17:56;9.40;99.90
3005;DHT22;1512;51.486;6.610;2023-02-21T14:22:26;9.50;99.90
3005;DHT22;1512;51.486;6.610;2023-02-21T14:31:03;9.40;1.00
3005;DHT22;1512;51.486;6.610;2023-02-21T14:35:28;9.40;38.00
3005;DHT22;1512;51.486;6.610;2023-02-21T14:39:38;9.40;99.90
3005;DHT22;1512;51.486;6.610;2023-02-21T14:52:49;9.40;1.00
3005;DHT22;1512;51.486;6.610;2023-02-21T15:06:17;9.30;99.90
3005;DHT22;1512;51.486;6.610;2023-02-21T15:10:30;9.20;99.90
3005;DHT22;1512;51.486;6.610;2023-02-21T15:14:50;9.20;1.00
3005;DHT22;1512;51.486;6.610;2023-02-21T15:19:03;9.20;1.00
3005;DHT22;1512;51.486;6.610;2023-02-21T15:23:27;9.10;1.00
3005;DHT22;1512;51.486;6.610;2023-02-21T15:27:51;9.10;1.00
3005;DHT22;1512;51.486;6.610;2023-02-21T15:31:54;9.10;63.00
3005;DHT22;1512;51.486;6.610;2023-02-21T15:36:24;9.10;1.00
3005;DHT22;1512;51.486;6.610;2023-02-21T15:40:34;9.10;1.00
3005;DHT22;1512;51.486;6.610;2023-02-21T15:44:49;9.10;1.00
3005;DHT22;1512;51.486;6.610;2023-02-21T15:49:00;9.10;1.00
3005;DHT22;1512;51.486;6.610;2023-02-21T15:57:26;9.10;99.90
3005;DHT22;1512;51.486;6.610;2023-02-21T16:01:35;9.00;1.00
3005;DHT22;1512;51.486;6.610;2023-02-21T16:05:44;9.00;1.00
3005;DHT22;1512;51.486;6.610;2023-02-21T16:09:58;9.00;94.30
3005;DHT22;1512;51.486;6.610;2023-02-21T16:14:16;9.00;1.00
3005;DHT22;1512;51.486;6.610;2023-02-21T16:18:25;9.00;99.90
3005;DHT22;1512;51.486;6.610;2023-02-21T16:22:36;9.00;99.90
3005;DHT22;1512;51.486;6.610;2023-02-21T16:27:08;9.00;99.90
3005;DHT22;1512;51.486;6.610;2023-02-21T16:31:22;9.00;99.90
3005;DHT22;1512;51.486;6.610;2023-02-21T16:35:27;9.00;99.90
3005;DHT22;1512;51.486;6.610;2023-02-21T16:39:36;9.10;99.90
3005;DHT22;1512;51.486;6.610;2023-02-21T16:43:46;9.10;99.90
3005;DHT22;1512;51.486;6.610;2023-02-21T16:47:58;9.10;99.90
3005;DHT22;1512;51.486;6.610;2023-02-21T16:52:15;9.00;67.90
3005;DHT22;1512;51.486;6.610;2023-02-21T16:56:24;9.20;99.90
3005;DHT22;1512;51.486;6.610;2023-02-21T17:00:33;9.20;1.00
3005;DHT22;1512;51.486;6.610;2023-02-21T17:04:41;9.10;1.00
3005;DHT22;1512;51.486;6.610;2023-02-21T17:09:20;9.10;1.00
3005;DHT22;1512;51.486;6.610;2023-02-21T17:13:28;9.10;1.00
3005;DHT22;1512;51.486;6.610;2023-02-21T17:17:37;9.00;1.00
3005;DHT22;1512;51.486;6.610;2023-02-21T17:21:47;9.00;1.00
3005;DHT22;1512;51.486;6.610;2023-02-21T17:25:55;9.00;1.00
3005;DHT22;1512;51.486;6.610;2023-02-21T17:30:05;9.00;1.00
3005;DHT22;1512;51.486;6.610;2023-02-21T17:34:14;8.90;1.00
3005;DHT22;1512;51.486;6.610;2023-02-21T17:38:23;8.90;1.00
3005;DHT22;1512;51.486;6.610;2023-02-21T17:42:31;8.90;1.00
3005;DHT22;1512;51.486;6.610;2023-02-21T17:46:45;8.90;99.90
3005;DHT22;1512;51.486;6.610;2023-02-21T17:50:56;8.90;88.50
3005;DHT22;1512;51.486;6.610;2023-02-21T17:55:24;8.90;1.00
3005;DHT22;1512;51.486;6.610;2023-02-21T17:59:36;8.90;96.00
3005;DHT22;1512;51.486;6.610;2023-02-21T18:03:47;8.90;99.90
3005;DHT22;1512;51.486;6.610;2023-02-21T18:07:56;8.90;99.90
3005;DHT22;1512;51.486;6.610;2023-02-21T18:12:06;8.90;99.90
3005;DHT22;1512;51.486;6.610;2023-02-21T18:16:15;8.90;99.90
3005;DHT22;1512;51.486;6.610;2023-02-21T18:20:24;8.90;99.90
3005;DHT22;1512;51.486;6.610;2023-02-21T18:24:32;8.90;1.00
3005;DHT22;1512;51.486;6.610;2023-02-21T18:28:41;8.90;1.00
3005;DHT22;1512;51.486;6.610;2023-02-21T18:32:50;8.90;1.00
3005;DHT22;1512;51.486;6.610;2023-02-21T18:36:58;8.90;1.00
3005;DHT22;1512;51.486;6.610;2023-02-21T18:41:15;8.90;1.00
3005;DHT22;1512;51.486;6.610;2023-02-21T18:45:45;8.90;1.00
3005;DHT22;1512;51.486;6.610;2023-02-21T18:49:53;8.90;1.00
3005;DHT22;1512;51.486;6.610;2023-02-21T18:54:03;8.90;1.00
3005;DHT22;1512;51.486;6.610;2023-02-21T18:58:12;8.80;1.00
3005;DHT22;1512;51.486;6.610;2023-02-21T19:02:20;8.80;1.00
3005;DHT22;1512;51.486;6.610;2023-02-21T19:06:30;8.80;1.00
3005;DHT22;1512;51.486;6.610;2023-02-21T19:10:39;8.80;1.00
3005;DHT22;1512;51.486;6.610;2023-02-21T19:14:48;8.80;1.00
3005;DHT22;1512;51.486;6.610;2023-02-21T19:18:57;8.80;1.00
3005;DHT22;1512;51.486;6.610;2023-02-21T19:23:06;8.80;1.00
3005;DHT22;1512;51.486;6.610;2023-02-21T19:27:15;8.80;1.00
3005;DHT22;1512;51.486;6.610;2023-02-21T19:31:24;8.80;1.00
3005;DHT22;1512;51.486;6.610;2023-02-21T19:35:34;8.80;1.00
3005;DHT22;1512;51.486;6.610;2023-02-21T19:39:44;8.80;1.00
3005;DHT22;1512;51.486;6.610;2023-02-21T19:43:52;8.70;1.00
3005;DHT22;1512;51.486;6.610;2023-02-21T19:48:01;8.70;1.00
3005;DHT22;1512;51.486;6.610;2023-02-21T19:52:11;8.70;1.00
3005;DHT22;1512;51.486;6.610;2023-02-21T19:56:20;8.70;1.00
3005;DHT22;1512;51.486;6.610;2023-02-21T20:00:30;8.70;1.00
3005;DHT22;1512;51.486;6.610;2023-02-21T20:04:39;8.70;1.00
3005;DHT22;1512;51.486;6.610;2023-02-21T20:08:48;8.70;1.00
3005;DHT22;1512;51.486;6.610;2023-02-21T20:12:57;8.70;1.00
3005;DHT22;1512;51.486;6.610;2023-02-21T20:17:05;8.70;1.00
3005;DHT22;1512;51.486;6.610;2023-02-21T20:21:18;8.70;1.00
3005;DHT22;1512;51.486;6.610;2023-02-21T20:25:27;8.70;1.00
3005;DHT22;1512;51.486;6.610;2023-02-21T20:29:36;8.70;1.00
3005;DHT22;1512;51.486;6.610;2023-02-21T20:33:46;8.70;1.00
3005;DHT22;1512;51.486;6.610;2023-02-21T20:37:55;8.70;1.00
3005;DHT22;1512;51.486;6.610;2023-02-21T20:42:05;8.70;1.00
3005;DHT22;1512;51.486;6.610;2023-02-21T20:46:20;8.70;1.00
3005;DHT22;1512;51.486;6.610;2023-02-21T20:50:29;8.70;1.00
3005;DHT22;1512;51.486;6.610;2023-02-21T20:54:37;8.60;1.00
3005;DHT22;1512;51.486;6.610;2023-02-21T20:58:46;8.60;1.00
3005;DHT22;1512;51.486;6.610;2023-02-21T21:02:54;8.60;99.90
3005;DHT22;1512;51.486;6.610;2023-02-21T21:07:14;8.60;1.00
3005;DHT22;1512;51.486;6.610;2023-02-21T21:11:19;8.50;1.00
3005;DHT22;1512;51.486;6.610;2023-02-21T21:15:28;8.50;1.00
3005;DHT22;1512;51.486;6.610;2023-02-21T21:19:56;8.50;1.00
3005;DHT22;1512;51.486;6.610;2023-02-21T21:24:05;8.50;1.00
3005;DHT22;1512;51.486;6.610;2023-02-21T21:28:14;8.40;99.90
3005;DHT22;1512;51.486;6.610;2023-02-21T21:32:23;8.40;99.90
3005;DHT22;1512;51.486;6.610;2023-02-21T21:36:32;8.40;99.90
3005;DHT22;1512;51.486;6.610;2023-02-21T21:40:42;8.40;99.90
3005;DHT22;1512;51.486;6.610;2023-02-21T21:44:54;8.30;1.00
3005;DHT22;1512;51.486;6.610;2023-02-21T21:49:03;8.30;1.00
3005;DHT22;1512;51.486;6.610;2023-02-21T21:53:13;8.30;99.90
3005;DHT22;1512;51.486;6.610;2023-02-21T21:57:23;8.30;99.90
3005;DHT22;1512;51.486;6.610;2023-02-21T22:01:35;8.30;1.00
3005;DHT22;1512;51.486;6.610;2023-02-21T22:05:46;8.30;1.00
3005;DHT22;1512;51.486;6.610;2023-02-21T22:09:56;8.30;1.00
3005;DHT22;1512;51.486;6.610;2023-02-21T22:14:05;8.40;99.90
3005;DHT22;1512;51.486;6.610;2023-02-21T22:18:18;8.40;1.00
3005;DHT22;1512;51.486;6.610;2023-02-21T22:22:27;8.30;99.90
3005;DHT22;1512;51.486;6.610;2023-02-21T22:26:35;8.40;99.90
3005;DHT22;1512;51.486;6.610;2023-02-21T22:30:48;8.30;99.90
3005;DHT22;1512;51.486;6.610;2023-02-21T22:34:57;8.30;99.90
3005;DHT22;1512;51.486;6.610;2023-02-21T22:39:05;8.30;99.90
3005;DHT22;1512;51.486;6.610;2023-02-21T22:43:15;8.30;99.90
3005;DHT22;1512;51.486;6.610;2023-02-21T22:47:26;8.30;99.90
3005;DHT22;1512;51.486;6.610;2023-02-21T22:51:35;8.30;99.90
3005;DHT22;1512;51.486;6.610;2023-02-21T22:55:44;8.20;99.90
3005;DHT22;1512;51.486;6.610;2023-02-21T22:59:57;8.10;99.90
3005;DHT22;1512;51.486;6.610;2023-02-21T23:04:05;8.00;1.00
3005;DHT22;1512;51.486;6.610;2023-02-21T23:08:19;8.10;1.00
3005;DHT22;1512;51.486;6.610;2023-02-21T23:12:29;8.00;55.70
3005;DHT22;1512;51.486;6.610;2023-02-21T23:16:37;8.00;99.90
3005;DHT22;1512;51.486;6.610;2023-02-21T23:20:51;8.00;99.90
3005;DHT22;1512;51.486;6.610;2023-02-21T23:25:00;8.00;1.00
3005;DHT22;1512;51.486;6.610;2023-02-21T23:29:12;8.00;1.00
3005;DHT22;1512;51.486;6.610;2023-02-21T23:33:23;8.00;1.00
3005;DHT22;1512;51.486;6.610;2023-02-21T23:37:33;8.00;1.00
3005;DHT22;1512;51.486;6.610;2023-02-21T23:41:43;8.00;1.00
3005;DHT22;1512;51.486;6.610;2023-02-21T23:45:56;8.00;1.00
3005;DHT22;1512;51.486;6.610;2023-02-21T23:50:05;8.00;1.00
3005;DHT22;1512;51.486;6.610;2023-02-21T23:54:14;8.00;28.00
3005;DHT22;1512;51.486;6.610;2023-02-21T23:58:27;7.90;99.90
